createdAt,value
2023-03-06T00:00:52.488Z,73.00
2023-03-06T00:03:21.724Z,72.86
2023-03-06T00:05:50.937Z,73.01
2023-03-06T00:08:19.960Z,72.92
2023-03-06T00:10:48.852Z,73.08
2023-03-06T00:13:19.457Z,72.74
2023-03-06T00:15:48.955Z,73.02
2023-03-06T00:18:18.185Z,72.78
2023-03-06T00:20:47.856Z,72.77
2023-03-06T00:23:16.671Z,73.24
2023-03-06T00:25:45.707Z,72.85
2023-03-06T00:28:15.272Z,73.37
2023-03-06T00:30:47.029Z,73.21
2023-03-06T00:33:16.072Z,73.17
2023-03-06T00:35:45.185Z,73.35
2023-03-06T00:38:14.142Z,73.16
2023-03-06T00:40:44.375Z,73.00
2023-03-06T00:43:13.353Z,73.24
2023-03-06T00:45:44.806Z,73.26
2023-03-06T00:48:15.707Z,73.18
2023-03-06T00:50:45.631Z,73.21
2023-03-06T00:53:14.483Z,73.34
2023-03-06T00:55:46.003Z,73.32
2023-03-06T00:58:14.857Z,73.45
2023-03-06T01:00:44.771Z,73.44
2023-03-06T01:03:16.300Z,73.30
2023-03-06T01:05:45.393Z,73.47
2023-03-06T01:08:14.171Z,73.29
2023-03-06T01:10:48.869Z,73.55
2023-03-06T01:13:18.650Z,73.07
2023-03-06T01:15:47.854Z,73.43
2023-03-06T01:18:16.736Z,73.28
2023-03-06T01:20:45.772Z,73.36
2023-03-06T01:23:15.507Z,73.69
2023-03-06T01:25:44.739Z,73.47
2023-03-06T01:28:13.492Z,73.18
2023-03-06T01:30:43.610Z,73.22
2023-03-06T01:33:12.536Z,73.45
2023-03-06T01:35:42.134Z,73.16
2023-03-06T01:38:12.047Z,73.59
2023-03-06T01:40:42.150Z,73.51
2023-03-06T01:43:25.719Z,73.18
2023-03-06T01:46:28.395Z,73.49
2023-03-06T01:49:05.979Z,73.72
2023-03-06T01:51:43.217Z,73.52
2023-03-06T01:54:20.534Z,73.37
2023-03-06T01:56:56.810Z,73.46
2023-03-06T01:59:27.984Z,73.65
2023-03-06T02:02:01.716Z,73.59
2023-03-06T02:04:32.016Z,73.29
2023-03-06T02:07:04.316Z,73.44
2023-03-06T02:09:37.953Z,73.41
2023-03-06T02:12:11.468Z,73.42
2023-03-06T02:14:46.469Z,73.80
2023-03-06T02:17:18.603Z,73.64
2023-03-06T02:20:00.121Z,73.63
2023-03-06T02:22:37.161Z,73.33
2023-03-06T02:25:21.451Z,73.46
2023-03-06T02:27:51.116Z,73.70
2023-03-06T02:30:21.557Z,73.44
2023-03-06T02:32:52.416Z,73.70
2023-03-06T02:35:24.636Z,73.38
2023-03-06T02:37:59.105Z,73.74
2023-03-06T02:40:28.746Z,74.04
2023-03-06T02:42:59.368Z,73.53
2023-03-06T02:45:35.696Z,73.56
2023-03-06T02:48:05.691Z,73.89
2023-03-06T02:50:34.906Z,73.70
2023-03-06T02:53:04.402Z,73.79
2023-03-06T02:55:35.626Z,74.09
2023-03-06T02:58:06.145Z,73.78
2023-03-06T03:00:35.840Z,73.54
2023-03-06T03:03:06.414Z,74.07
2023-03-06T03:05:38.932Z,73.82
2023-03-06T03:08:14.542Z,73.89
2023-03-06T03:10:44.463Z,73.50
2023-03-06T03:13:15.699Z,74.25
2023-03-06T03:15:45.246Z,73.60
2023-03-06T03:18:15.484Z,73.80
2023-03-06T03:20:44.484Z,73.93
2023-03-06T03:23:14.127Z,73.75
2023-03-06T03:25:43.450Z,73.58
2023-03-06T03:28:12.432Z,73.61
2023-03-06T03:30:42.786Z,73.82
2023-03-06T03:33:14.376Z,74.03
2023-03-06T03:35:46.596Z,74.00
2023-03-06T03:38:15.576Z,74.22
2023-03-06T03:40:44.989Z,74.23
2023-03-06T03:43:14.129Z,73.88
2023-03-06T03:45:44.436Z,74.07
2023-03-06T03:48:18.097Z,73.89
2023-03-06T03:50:47.260Z,73.68
2023-03-06T03:53:16.816Z,73.95
2023-03-06T03:55:47.961Z,74.13
2023-03-06T03:58:18.485Z,74.09
2023-03-06T04:00:51.000Z,74.00
2023-03-06T04:03:20.465Z,73.94
2023-03-06T04:05:49.488Z,73.76
2023-03-06T04:08:21.800Z,74.26
2023-03-06T04:10:51.606Z,74.08
2023-03-06T04:13:23.730Z,74.23
2023-03-06T04:15:59.203Z,73.78
2023-03-06T04:18:31.170Z,73.61
2023-03-06T04:21:07.408Z,74.16
2023-03-06T04:23:36.525Z,74.18
2023-03-06T04:26:09.612Z,73.66
2023-03-06T04:28:38.653Z,73.70
2023-03-06T04:31:08.113Z,73.77
2023-03-06T04:33:41.055Z,73.68
2023-03-06T04:36:24.739Z,74.25
2023-03-06T04:38:57.691Z,74.16
2023-03-06T04:41:26.925Z,74.29
2023-03-06T04:43:59.003Z,73.84
2023-03-06T04:46:52.427Z,73.68
2023-03-06T04:49:21.857Z,73.56
2023-03-06T04:51:50.967Z,73.66
2023-03-06T04:54:19.831Z,74.26
2023-03-06T04:56:52.578Z,73.45
2023-03-06T04:59:24.020Z,73.94
2023-03-06T05:01:54.096Z,73.45
2023-03-06T05:04:24.778Z,74.01
2023-03-06T05:07:02.043Z,74.19
2023-03-06T05:09:31.122Z,73.66
2023-03-06T05:12:02.654Z,73.53
2023-03-06T05:14:33.717Z,74.10
2023-03-06T05:17:05.161Z,74.05
2023-03-06T05:19:34.189Z,73.53
2023-03-06T05:22:05.602Z,74.16
2023-03-06T05:24:34.569Z,73.68
2023-03-06T05:27:10.007Z,74.15
2023-03-06T05:29:39.018Z,73.58
2023-03-06T05:32:09.018Z,74.17
2023-03-06T05:34:40.107Z,73.76
2023-03-06T05:37:09.351Z,74.00
2023-03-06T05:39:38.642Z,73.57
2023-03-06T05:42:10.917Z,73.57
2023-03-06T05:44:41.274Z,74.15
2023-03-06T05:47:12.896Z,73.94
2023-03-06T05:49:42.122Z,74.12
2023-03-06T05:52:13.085Z,73.68
2023-03-06T05:54:42.539Z,74.20
2023-03-06T05:57:11.957Z,73.66
2023-03-06T05:59:40.829Z,74.22
2023-03-06T06:02:11.002Z,73.68
2023-03-06T06:04:39.910Z,74.03
2023-03-06T06:07:12.534Z,73.90
2023-03-06T06:09:42.957Z,73.81
2023-03-06T06:12:12.979Z,74.32
2023-03-06T06:14:43.225Z,74.19
2023-03-06T06:17:12.437Z,74.44
2023-03-06T06:19:41.371Z,74.25
2023-03-06T06:22:11.146Z,74.18
2023-03-06T06:24:40.108Z,74.55
2023-03-06T06:27:10.036Z,74.27
2023-03-06T06:29:39.034Z,74.67
2023-03-06T06:32:08.569Z,74.33
2023-03-06T06:34:40.185Z,74.31
2023-03-06T06:37:11.977Z,74.37
2023-03-06T06:39:42.033Z,74.31
2023-03-06T06:42:29.443Z,74.71
2023-03-06T06:45:01.330Z,74.82
2023-03-06T06:47:30.353Z,74.91
2023-03-06T06:49:59.926Z,74.33
2023-03-06T06:52:28.806Z,74.51
2023-03-06T06:55:00.242Z,74.44
2023-03-06T06:57:29.634Z,74.72
2023-03-06T06:59:59.774Z,74.85
2023-03-06T07:02:28.798Z,74.71
2023-03-06T07:05:05.941Z,74.44
2023-03-06T07:07:36.696Z,74.41
2023-03-06T07:10:08.694Z,74.33
2023-03-06T07:12:38.280Z,74.41
2023-03-06T07:15:13.508Z,74.33
2023-03-06T07:17:43.347Z,74.36
2023-03-06T07:20:15.331Z,73.34
2023-03-06T07:22:51.256Z,73.11
2023-03-06T07:25:22.607Z,73.48
2023-03-06T07:27:54.645Z,73.24
2023-03-06T07:30:25.399Z,73.60
2023-03-06T07:32:57.150Z,73.58
2023-03-06T07:35:27.941Z,73.43
2023-03-06T07:37:58.724Z,71.73
2023-03-06T07:40:28.134Z,70.26
2023-03-06T07:43:13.038Z,69.18
2023-03-06T07:45:58.521Z,68.59
2023-03-06T07:48:29.269Z,69.72
2023-03-06T07:51:01.237Z,68.65
2023-03-06T07:53:30.545Z,67.76
2023-03-06T07:55:59.546Z,68.11
2023-03-06T07:58:28.325Z,68.38
2023-03-06T08:00:57.884Z,67.33
2023-03-06T08:03:27.096Z,66.25
2023-03-06T08:06:06.373Z,64.71
2023-03-06T08:08:35.654Z,63.77
2023-03-06T08:11:09.062Z,63.90
2023-03-06T08:13:38.259Z,64.61
2023-03-06T08:16:09.170Z,65.70
2023-03-06T08:18:39.426Z,65.92
2023-03-06T08:21:11.201Z,65.92
2023-03-06T08:23:41.169Z,66.08
2023-03-06T08:26:14.228Z,66.03
2023-03-06T08:28:43.012Z,65.54
2023-03-06T08:31:21.024Z,66.05
2023-03-06T08:33:50.329Z,66.04
2023-03-06T08:36:20.223Z,65.80
2023-03-06T08:38:49.128Z,66.26
2023-03-06T08:41:20.229Z,66.70
2023-03-06T08:43:49.585Z,66.36
2023-03-06T08:46:21.879Z,67.04
2023-03-06T08:48:51.202Z,66.24
2023-03-06T08:51:21.622Z,65.86
2023-03-06T08:53:51.215Z,66.92
2023-03-06T08:56:23.601Z,66.88
2023-03-06T08:58:53.634Z,67.37
2023-03-06T09:01:24.816Z,66.47
2023-03-06T09:03:57.116Z,66.22
2023-03-06T09:06:27.805Z,67.15
2023-03-06T09:08:58.713Z,66.91
2023-03-06T09:11:28.445Z,66.99
2023-03-06T09:13:59.447Z,66.65
2023-03-06T09:16:31.482Z,66.36
2023-03-06T09:19:00.539Z,66.58
2023-03-06T09:21:29.851Z,66.31
2023-03-06T09:23:59.922Z,67.23
2023-03-06T09:26:43.258Z,67.04
2023-03-06T09:29:17.132Z,66.30
2023-03-06T09:31:57.951Z,66.59
2023-03-06T09:34:27.351Z,67.00
2023-03-06T09:36:57.801Z,66.64
2023-03-06T09:39:26.936Z,67.13
2023-03-06T09:41:58.841Z,66.66
2023-03-06T09:44:30.896Z,66.91
2023-03-06T09:47:25.084Z,67.55
2023-03-06T09:50:13.264Z,66.78
2023-03-06T09:52:57.474Z,67.01
2023-03-06T09:55:30.176Z,66.43
2023-03-06T09:58:02.587Z,66.82
2023-03-06T10:00:36.906Z,66.63
2023-03-06T10:03:15.309Z,66.61
2023-03-06T10:05:52.402Z,67.77
2023-03-06T10:08:31.326Z,66.80
2023-03-06T10:11:03.134Z,66.82
2023-03-06T10:13:39.260Z,67.01
2023-03-06T10:16:22.875Z,66.97
2023-03-06T10:18:57.300Z,66.58
2023-03-06T10:21:38.068Z,66.68
2023-03-06T10:24:19.353Z,66.71
2023-03-06T10:26:58.078Z,67.63
2023-03-06T10:29:56.391Z,66.97
2023-03-06T10:32:48.564Z,67.42
2023-03-06T10:35:23.836Z,67.90
2023-03-06T10:38:04.614Z,67.06
2023-03-06T10:40:44.334Z,67.93
2023-03-06T10:43:13.245Z,68.06
2023-03-06T10:45:53.938Z,68.12
2023-03-06T10:48:25.267Z,67.07
2023-03-06T10:51:18.649Z,67.04
2023-03-06T10:53:54.531Z,67.81
2023-03-06T10:56:29.511Z,67.43
2023-03-06T10:59:11.970Z,67.66
2023-03-06T11:01:50.297Z,67.80
2023-03-06T11:04:26.128Z,67.35
2023-03-06T11:07:14.523Z,67.49
2023-03-06T11:09:47.227Z,68.26
2023-03-06T11:12:23.653Z,67.53
2023-03-06T11:15:17.204Z,67.30
2023-03-06T11:17:53.477Z,68.10
2023-03-06T11:20:27.146Z,67.80
2023-03-06T11:23:03.191Z,68.03
2023-03-06T11:25:36.901Z,68.39
2023-03-06T11:28:13.867Z,68.45
2023-03-06T11:30:47.311Z,68.20
2023-03-06T11:33:22.527Z,68.60
2023-03-06T11:35:57.841Z,67.83
2023-03-06T11:38:36.153Z,67.79
2023-03-06T11:41:13.806Z,68.53
2023-03-06T11:43:52.844Z,68.36
2023-03-06T11:46:26.471Z,68.04
2023-03-06T11:49:06.214Z,67.85
2023-03-06T11:51:42.714Z,68.79
2023-03-06T11:54:13.786Z,68.55
2023-03-06T11:56:52.540Z,68.14
2023-03-06T12:00:05.606Z,68.52
2023-03-06T12:02:57.576Z,68.25
2023-03-06T12:05:36.847Z,68.55
2023-03-06T12:08:23.252Z,68.30
2023-03-06T12:10:57.993Z,69.07
2023-03-06T12:13:58.633Z,69.34
2023-03-06T12:16:43.735Z,68.59
2023-03-06T12:19:30.314Z,68.95
2023-03-06T12:22:21.377Z,68.81
2023-03-06T12:25:07.318Z,69.35
2023-03-06T12:27:45.231Z,69.42
2023-03-06T12:30:36.335Z,68.65
2023-03-06T12:33:16.884Z,69.98
2023-03-06T12:35:57.991Z,69.97
2023-03-06T12:38:51.599Z,69.67
2023-03-06T12:41:31.343Z,69.71
2023-03-06T12:44:26.031Z,69.87
2023-03-06T12:47:02.160Z,69.36
2023-03-06T12:49:34.031Z,69.31
2023-03-06T12:52:07.114Z,69.70
2023-03-06T12:54:40.438Z,70.01
2023-03-06T12:57:14.595Z,70.12
2023-03-06T12:59:47.440Z,69.30
2023-03-06T13:02:45.052Z,69.35
2023-03-06T13:05:45.894Z,69.65
2023-03-06T13:08:34.843Z,69.76
2023-03-06T13:11:23.136Z,69.82
2023-03-06T13:13:52.304Z,70.05
2023-03-06T13:16:30.400Z,69.85
2023-03-06T13:19:18.377Z,70.45
2023-03-06T13:22:01.320Z,70.06
2023-03-06T13:24:33.044Z,70.18
2023-03-06T13:27:05.677Z,69.97
2023-03-06T13:30:21.240Z,70.21
2023-03-06T13:32:52.877Z,70.26
2023-03-06T13:35:52.019Z,71.06
2023-03-06T13:38:54.358Z,70.03
2023-03-06T13:41:58.114Z,70.57
2023-03-06T13:44:50.489Z,71.01
2023-03-06T13:48:10.636Z,70.51
2023-03-06T13:50:36.495Z,70.36
2023-03-06T13:53:47.441Z,71.02
2023-03-06T13:56:41.129Z,71.41
2023-03-06T13:59:25.325Z,70.85
2023-03-06T14:02:09.890Z,70.88
2023-03-06T14:04:53.262Z,71.39
2023-03-06T14:07:26.200Z,71.09
2023-03-06T14:10:11.035Z,70.93
2023-03-06T14:13:01.973Z,70.85
2023-03-06T14:15:43.943Z,71.14
2023-03-06T14:18:20.364Z,71.82
2023-03-06T14:20:55.171Z,71.70
2023-03-06T14:23:28.204Z,71.92
2023-03-06T14:26:03.758Z,71.58
2023-03-06T14:28:35.926Z,71.33
2023-03-06T14:31:06.642Z,71.19
2023-03-06T14:33:42.970Z,71.80
2023-03-06T14:36:16.990Z,71.06
2023-03-06T14:38:48.646Z,71.37
2023-03-06T14:41:25.975Z,71.98
2023-03-06T14:44:17.201Z,71.49
2023-03-06T14:46:49.784Z,71.96
2023-03-06T14:49:20.462Z,72.17
2023-03-06T14:51:51.537Z,72.26
2023-03-06T14:54:24.593Z,71.80
2023-03-06T14:56:57.710Z,71.68
2023-03-06T14:59:29.411Z,72.33
2023-03-06T15:02:02.703Z,71.56
2023-03-06T15:04:38.876Z,71.56
2023-03-06T15:07:12.995Z,72.47
2023-03-06T15:09:54.530Z,72.08
2023-03-06T15:12:38.086Z,72.10
2023-03-06T15:15:29.739Z,72.16
2023-03-06T15:18:00.310Z,72.07
2023-03-06T15:20:45.354Z,72.10
2023-03-06T15:23:21.119Z,73.02
2023-03-06T15:25:57.421Z,73.30
2023-03-06T15:28:33.767Z,73.04
2023-03-06T15:31:21.396Z,73.07
2023-03-06T15:34:17.953Z,72.40
2023-03-06T15:36:48.439Z,72.70
2023-03-06T15:39:40.882Z,72.55
2023-03-06T15:42:19.830Z,73.34
2023-03-06T15:44:52.836Z,73.31
2023-03-06T15:47:23.208Z,72.74
2023-03-06T15:49:52.718Z,72.62
2023-03-06T15:52:22.288Z,72.87
2023-03-06T15:54:54.344Z,72.73
2023-03-06T15:57:26.053Z,73.59
2023-03-06T15:59:56.792Z,72.69
2023-03-06T16:02:25.968Z,73.49
2023-03-06T16:04:54.884Z,73.21
2023-03-06T16:07:28.030Z,73.39
2023-03-06T16:09:57.803Z,73.04
2023-03-06T16:12:29.640Z,73.10
2023-03-06T16:15:02.175Z,73.18
2023-03-06T16:17:31.196Z,72.84
2023-03-06T16:20:00.028Z,73.34
2023-03-06T16:22:28.929Z,72.89
2023-03-06T16:25:00.269Z,73.07
2023-03-06T16:27:29.492Z,73.72
2023-03-06T16:29:58.889Z,73.19
2023-03-06T16:32:28.872Z,74.08
2023-03-06T16:35:00.014Z,73.59
2023-03-06T16:37:29.062Z,73.48
2023-03-06T16:40:00.519Z,73.68
2023-03-06T16:42:29.934Z,73.67
2023-03-06T16:45:00.649Z,73.46
2023-03-06T16:47:31.471Z,73.69
2023-03-06T16:50:01.658Z,73.73
2023-03-06T16:52:31.276Z,73.41
2023-03-06T16:55:00.233Z,74.02
2023-03-06T16:57:35.022Z,73.69
2023-03-06T17:00:06.548Z,74.05
2023-03-06T17:02:36.022Z,74.76
2023-03-06T17:05:06.749Z,73.90
2023-03-06T17:07:37.799Z,73.61
2023-03-06T17:10:09.924Z,74.43
2023-03-06T17:12:39.155Z,74.67
2023-03-06T17:15:10.855Z,74.55
2023-03-06T17:17:41.455Z,73.96
2023-03-06T17:20:16.350Z,74.90
2023-03-06T17:22:45.477Z,74.11
2023-03-06T17:25:23.862Z,74.52
2023-03-06T17:27:52.968Z,74.97
2023-03-06T17:30:22.166Z,74.55
2023-03-06T17:32:53.090Z,74.85
2023-03-06T17:35:21.993Z,74.64
2023-03-06T17:37:54.427Z,74.66
2023-03-06T17:40:23.316Z,74.88
2023-03-06T17:42:53.602Z,74.02
2023-03-06T17:45:22.374Z,74.60
2023-03-06T17:47:57.253Z,74.02
2023-03-06T17:50:26.312Z,74.65
2023-03-06T17:52:58.499Z,75.08
2023-03-06T17:55:28.468Z,74.33
2023-03-06T17:57:58.493Z,74.41
2023-03-06T18:00:27.701Z,75.03
2023-03-06T18:02:57.614Z,74.54
2023-03-06T18:05:26.930Z,74.43
2023-03-06T18:07:59.013Z,74.58
2023-03-06T18:10:29.561Z,74.33
2023-03-06T18:12:59.614Z,75.07
2023-03-06T18:15:28.839Z,74.37
2023-03-06T18:18:00.902Z,74.85
2023-03-06T18:20:29.977Z,74.96
2023-03-06T18:23:03.069Z,74.71
2023-03-06T18:25:32.097Z,75.38
2023-03-06T18:28:01.573Z,74.95
2023-03-06T18:30:30.681Z,75.42
2023-03-06T18:33:00.324Z,74.91
2023-03-06T18:35:29.665Z,74.76
2023-03-06T18:38:01.518Z,74.94
2023-03-06T18:40:31.926Z,74.97
2023-03-06T18:43:08.627Z,75.65
2023-03-06T18:45:40.693Z,75.34
2023-03-06T18:48:11.472Z,75.10
2023-03-06T18:50:46.247Z,74.99
2023-03-06T18:53:15.289Z,75.31
2023-03-06T18:55:48.579Z,74.77
2023-03-06T18:58:19.794Z,74.62
2023-03-06T19:00:49.527Z,75.05
2023-03-06T19:03:18.928Z,75.36
2023-03-06T19:05:49.397Z,75.19
2023-03-06T19:08:19.219Z,75.65
2023-03-06T19:10:49.641Z,75.18
2023-03-06T19:13:18.906Z,75.56
2023-03-06T19:15:49.055Z,75.20
2023-03-06T19:18:18.779Z,74.94
2023-03-06T19:20:47.710Z,75.29
2023-03-06T19:23:17.007Z,75.12
2023-03-06T19:25:57.074Z,74.89
2023-03-06T19:28:27.775Z,75.27
2023-03-06T19:31:08.622Z,75.34
2023-03-06T19:33:45.705Z,75.74
2023-03-06T19:36:17.938Z,75.58
2023-03-06T19:39:01.937Z,75.98
2023-03-06T19:41:32.527Z,75.60
2023-03-06T19:44:06.058Z,76.02
2023-03-06T19:46:36.183Z,75.08
2023-03-06T19:49:12.217Z,74.93
2023-03-06T19:51:44.761Z,75.19
2023-03-06T19:54:14.545Z,75.49
2023-03-06T19:56:47.894Z,75.39
2023-03-06T19:59:19.139Z,75.36
2023-03-06T20:01:53.512Z,75.16
2023-03-06T20:04:25.351Z,75.10
2023-03-06T20:07:04.805Z,75.62
2023-03-06T20:09:35.224Z,75.32
2023-03-06T20:12:08.941Z,75.31
2023-03-06T20:14:54.795Z,75.68
2023-03-06T20:17:27.324Z,75.88
2023-03-06T20:20:02.869Z,75.59
2023-03-06T20:22:35.311Z,76.04
2023-03-06T20:25:10.482Z,75.52
2023-03-06T20:27:44.793Z,75.64
2023-03-06T20:30:18.845Z,75.77
2023-03-06T20:32:56.034Z,75.25
2023-03-06T20:35:26.831Z,75.20
2023-03-06T20:38:00.985Z,75.81
2023-03-06T20:40:32.495Z,76.31
2023-03-06T20:43:03.570Z,76.23
2023-03-06T20:45:35.479Z,75.74
2023-03-06T20:48:08.839Z,75.39
2023-03-06T20:50:41.250Z,75.37
2023-03-06T20:53:11.098Z,75.58
2023-03-06T20:55:40.036Z,75.92
2023-03-06T20:58:09.177Z,75.31
2023-03-06T21:00:38.110Z,76.17
2023-03-06T21:03:09.769Z,76.20
2023-03-06T21:05:38.624Z,75.63
2023-03-06T21:08:08.019Z,75.67
2023-03-06T21:10:38.708Z,76.08
2023-03-06T21:13:07.702Z,75.92
2023-03-06T21:15:38.725Z,76.06
2023-03-06T21:18:09.435Z,76.28
2023-03-06T21:20:39.679Z,76.33
2023-03-06T21:23:08.978Z,75.95
2023-03-06T21:25:46.037Z,75.65
2023-03-06T21:28:23.148Z,76.03
2023-03-06T21:30:55.388Z,76.19
2023-03-06T21:33:26.185Z,75.51
2023-03-06T21:35:55.080Z,75.77
2023-03-06T21:38:25.418Z,75.93
2023-03-06T21:40:55.770Z,76.32
2023-03-06T21:43:25.432Z,75.89
2023-03-06T21:45:58.698Z,76.00
2023-03-06T21:48:27.694Z,75.84
2023-03-06T21:51:07.162Z,75.96
2023-03-06T21:53:36.971Z,76.71
2023-03-06T21:56:08.110Z,76.25
2023-03-06T21:58:37.621Z,76.16
2023-03-06T22:01:10.884Z,76.00
2023-03-06T22:03:40.054Z,76.10
2023-03-06T22:06:11.621Z,75.94
2023-03-06T22:08:42.616Z,76.84
2023-03-06T22:11:13.607Z,76.18
2023-03-06T22:13:43.354Z,76.80
2023-03-06T22:16:12.603Z,76.46
2023-03-06T22:18:45.370Z,76.65
2023-03-06T22:21:16.946Z,76.21
2023-03-06T22:23:57.842Z,76.45
2023-03-06T22:26:28.069Z,76.43
2023-03-06T22:28:58.598Z,76.47
2023-03-06T22:31:28.530Z,75.94
2023-03-06T22:34:00.213Z,76.66
2023-03-06T22:36:30.521Z,76.64
2023-03-06T22:39:03.646Z,76.70
2023-03-06T22:41:32.648Z,76.30
2023-03-06T22:44:02.505Z,76.75
2023-03-06T22:46:33.144Z,76.48
2023-03-06T22:49:04.535Z,76.54
2023-03-06T22:51:33.371Z,76.08
2023-03-06T22:54:02.378Z,77.06
2023-03-06T22:56:31.641Z,76.18
2023-03-06T22:59:00.743Z,76.42
2023-03-06T23:01:31.818Z,76.55
2023-03-06T23:04:04.312Z,76.97
2023-03-06T23:06:35.173Z,76.46
2023-03-06T23:09:06.700Z,77.02
2023-03-06T23:11:54.804Z,76.49
2023-03-06T23:14:43.157Z,76.57
2023-03-06T23:17:31.048Z,76.63
2023-03-06T23:20:23.295Z,76.42
2023-03-06T23:23:11.694Z,76.20
2023-03-06T23:25:44.567Z,76.48
2023-03-06T23:28:13.624Z,75.94
2023-03-06T23:30:43.270Z,76.31
2023-03-06T23:33:12.331Z,76.17
2023-03-06T23:35:44.041Z,76.17
2023-03-06T23:38:13.156Z,76.01
2023-03-06T23:40:42.267Z,76.42
2023-03-06T23:43:11.157Z,76.91
2023-03-06T23:45:40.332Z,76.20
2023-03-06T23:48:09.222Z,76.20
2023-03-06T23:50:42.024Z,76.70
2023-03-06T23:53:14.433Z,76.64
2023-03-06T23:55:43.942Z,76.82
2023-03-06T23:58:15.203Z,76.44
